sensor_id;sensor_type;location;lat;lon;timestamp;pressure;altitude;pressure_sealevel;temperature;humidity
59877;BME280;45749;51.140;17.184;2023-08-06T00:01:41;98998.72;;;16.76;100.00
59877;BME280;45749;51.140;17.184;2023-08-06T00:04:06;99007.81;;;16.82;100.00
59877;BME280;45749;51.140;17.184;2023-08-06T00:06:32;98999.53;;;16.77;100.00
59877;BME280;45749;51.140;17.184;2023-08-06T00:08:57;98980.41;;;16.73;100.00
59877;BME280;45749;51.140;17.184;2023-08-06T00:11:22;98987.22;;;16.76;100.00
59877;BME280;45749;51.140;17.184;2023-08-06T00:13:48;98953.59;;;16.60;100.00
59877;BME280;45749;51.140;17.184;2023-08-06T00:16:13;98957.44;;;16.57;100.00
59877;BME280;45749;51.140;17.184;2023-08-06T00:18:39;98989.69;;;16.77;100.00
59877;BME280;45749;51.140;17.184;2023-08-06T00:21:05;98988.06;;;16.76;100.00
59877;BME280;45749;51.140;17.184;2023-08-06T00:23:30;98981.72;;;16.77;100.00
59877;BME280;45749;51.140;17.184;2023-08-06T00:25:56;98964.63;;;16.72;100.00
59877;BME280;45749;51.140;17.184;2023-08-06T00:28:21;98968.69;;;16.82;100.00
59877;BME280;45749;51.140;17.184;2023-08-06T00:30:46;98954.44;;;16.75;100.00
59877;BME280;45749;51.140;17.184;2023-08-06T00:33:17;98959.03;;;16.81;100.00
59877;BME280;45749;51.140;17.184;2023-08-06T00:35:42;98960.84;;;16.81;100.00
59877;BME280;45749;51.140;17.184;2023-08-06T00:38:07;98919.31;;;16.57;100.00
59877;BME280;45749;51.140;17.184;2023-08-06T00:40:33;98954.25;;;16.77;100.00
59877;BME280;45749;51.140;17.184;2023-08-06T00:42:58;98953.22;;;16.78;100.00
59877;BME280;45749;51.140;17.184;2023-08-06T00:45:25;98950.06;;;16.74;100.00
59877;BME280;45749;51.140;17.184;2023-08-06T00:47:51;98939.28;;;16.76;100.00
59877;BME280;45749;51.140;17.184;2023-08-06T00:50:16;98906.31;;;16.62;100.00
59877;BME280;45749;51.140;17.184;2023-08-06T00:52:42;98911.50;;;16.70;100.00
59877;BME280;45749;51.140;17.184;2023-08-06T00:55:08;98897.19;;;16.71;100.00
59877;BME280;45749;51.140;17.184;2023-08-06T00:57:34;98887.53;;;16.70;100.00
59877;BME280;45749;51.140;17.184;2023-08-06T00:59:59;98897.84;;;16.73;100.00
59877;BME280;45749;51.140;17.184;2023-08-06T01:02:24;98884.72;;;16.72;100.00
59877;BME280;45749;51.140;17.184;2023-08-06T01:04:50;98865.13;;;16.64;100.00
59877;BME280;45749;51.140;17.184;2023-08-06T01:07:25;98866.44;;;16.69;100.00
59877;BME280;45749;51.140;17.184;2023-08-06T01:10:19;98844.31;;;16.53;100.00
59877;BME280;45749;51.140;17.184;2023-08-06T01:13:01;98845.78;;;16.56;100.00
59877;BME280;45749;51.140;17.184;2023-08-06T01:15:41;98851.66;;;16.66;100.00
59877;BME280;45749;51.140;17.184;2023-08-06T01:18:08;98827.78;;;16.58;100.00
59877;BME280;45749;51.140;17.184;2023-08-06T01:20:34;98832.19;;;16.65;100.00
59877;BME280;45749;51.140;17.184;2023-08-06T01:22:59;98833.00;;;16.66;100.00
59877;BME280;45749;51.140;17.184;2023-08-06T01:25:34;98829.31;;;16.67;100.00
59877;BME280;45749;51.140;17.184;2023-08-06T01:30:54;98797.28;;;16.60;100.00
59877;BME280;45749;51.140;17.184;2023-08-06T01:33:21;98779.22;;;16.56;100.00
59877;BME280;45749;51.140;17.184;2023-08-06T01:35:48;98769.88;;;16.45;100.00
59877;BME280;45749;51.140;17.184;2023-08-06T01:38:14;98801.06;;;16.66;100.00
59877;BME280;45749;51.140;17.184;2023-08-06T01:40:40;98778.47;;;16.62;100.00
59877;BME280;45749;51.140;17.184;2023-08-06T01:43:05;98759.16;;;16.75;100.00
59877;BME280;45749;51.140;17.184;2023-08-06T01:45:31;98774.97;;;16.76;100.00
59877;BME280;45749;51.140;17.184;2023-08-06T01:47:56;98754.38;;;16.70;100.00
59877;BME280;45749;51.140;17.184;2023-08-06T01:50:22;98759.88;;;16.83;100.00
59877;BME280;45749;51.140;17.184;2023-08-06T01:52:47;98752.97;;;16.89;100.00
59877;BME280;45749;51.140;17.184;2023-08-06T01:55:12;98744.22;;;16.95;100.00
59877;BME280;45749;51.140;17.184;2023-08-06T01:57:38;98749.34;;;16.97;100.00
59877;BME280;45749;51.140;17.184;2023-08-06T02:00:03;98761.25;;;17.01;100.00
59877;BME280;45749;51.140;17.184;2023-08-06T02:02:28;98756.97;;;17.00;100.00
59877;BME280;45749;51.140;17.184;2023-08-06T02:04:54;98743.56;;;16.93;100.00
59877;BME280;45749;51.140;17.184;2023-08-06T02:07:19;98734.38;;;16.96;100.00
59877;BME280;45749;51.140;17.184;2023-08-06T02:09:44;98727.81;;;16.92;100.00
59877;BME280;45749;51.140;17.184;2023-08-06T02:12:09;98719.09;;;16.83;100.00
59877;BME280;45749;51.140;17.184;2023-08-06T02:14:35;98719.97;;;16.90;100.00
59877;BME280;45749;51.140;17.184;2023-08-06T02:17:00;98721.00;;;16.89;100.00
59877;BME280;45749;51.140;17.184;2023-08-06T02:19:25;98718.28;;;16.82;100.00
59877;BME280;45749;51.140;17.184;2023-08-06T02:21:51;98722.03;;;16.88;100.00
59877;BME280;45749;51.140;17.184;2023-08-06T02:24:16;98716.22;;;16.84;100.00
59877;BME280;45749;51.140;17.184;2023-08-06T02:26:41;98688.09;;;16.75;100.00
59877;BME280;45749;51.140;17.184;2023-08-06T02:29:07;98700.25;;;16.84;100.00
59877;BME280;45749;51.140;17.184;2023-08-06T02:31:32;98671.00;;;16.70;100.00
59877;BME280;45749;51.140;17.184;2023-08-06T02:33:57;98656.88;;;16.69;100.00
59877;BME280;45749;51.140;17.184;2023-08-06T02:36:23;98642.28;;;16.65;100.00
59877;BME280;45749;51.140;17.184;2023-08-06T02:38:49;98651.78;;;16.74;100.00
59877;BME280;45749;51.140;17.184;2023-08-06T02:41:14;98656.13;;;16.75;100.00
59877;BME280;45749;51.140;17.184;2023-08-06T02:43:40;98624.03;;;16.62;100.00
59877;BME280;45749;51.140;17.184;2023-08-06T02:46:05;98641.88;;;16.68;100.00
59877;BME280;45749;51.140;17.184;2023-08-06T02:48:31;98626.63;;;16.55;100.00
59877;BME280;45749;51.140;17.184;2023-08-06T02:50:59;98643.28;;;16.64;100.00
59877;BME280;45749;51.140;17.184;2023-08-06T02:53:25;98641.00;;;16.61;100.00
59877;BME280;45749;51.140;17.184;2023-08-06T02:55:50;98647.22;;;16.68;100.00
59877;BME280;45749;51.140;17.184;2023-08-06T02:58:15;98635.44;;;16.56;100.00
59877;BME280;45749;51.140;17.184;2023-08-06T03:00:41;98611.41;;;16.49;100.00
59877;BME280;45749;51.140;17.184;2023-08-06T03:03:07;98637.59;;;16.67;100.00
59877;BME280;45749;51.140;17.184;2023-08-06T03:05:32;98619.47;;;16.56;100.00
59877;BME280;45749;51.140;17.184;2023-08-06T03:07:57;98633.00;;;16.61;100.00
59877;BME280;45749;51.140;17.184;2023-08-06T03:10:23;98631.16;;;16.61;100.00
59877;BME280;45749;51.140;17.184;2023-08-06T03:12:48;98631.59;;;16.58;100.00
59877;BME280;45749;51.140;17.184;2023-08-06T03:15:13;98619.13;;;16.44;100.00
59877;BME280;45749;51.140;17.184;2023-08-06T03:17:39;98620.34;;;16.41;100.00
59877;BME280;45749;51.140;17.184;2023-08-06T03:20:05;98646.84;;;16.50;100.00
59877;BME280;45749;51.140;17.184;2023-08-06T03:22:31;98651.09;;;16.44;100.00
59877;BME280;45749;51.140;17.184;2023-08-06T03:24:56;98650.72;;;16.47;100.00
59877;BME280;45749;51.140;17.184;2023-08-06T03:27:21;98620.03;;;16.30;100.00
59877;BME280;45749;51.140;17.184;2023-08-06T03:29:49;98621.69;;;16.31;100.00
59877;BME280;45749;51.140;17.184;2023-08-06T03:32:15;98645.38;;;16.47;100.00
59877;BME280;45749;51.140;17.184;2023-08-06T03:34:40;98636.31;;;16.41;100.00
59877;BME280;45749;51.140;17.184;2023-08-06T03:37:05;98633.28;;;16.45;100.00
59877;BME280;45749;51.140;17.184;2023-08-06T03:39:31;98638.97;;;16.41;100.00
59877;BME280;45749;51.140;17.184;2023-08-06T03:41:56;98633.03;;;16.39;100.00
59877;BME280;45749;51.140;17.184;2023-08-06T03:44:21;98625.81;;;16.33;100.00
59877;BME280;45749;51.140;17.184;2023-08-06T03:46:47;98604.38;;;16.20;100.00
59877;BME280;45749;51.140;17.184;2023-08-06T03:49:12;98571.88;;;16.03;100.00
59877;BME280;45749;51.140;17.184;2023-08-06T03:51:37;98605.78;;;16.16;100.00
59877;BME280;45749;51.140;17.184;2023-08-06T03:54:02;98618.72;;;16.19;100.00
59877;BME280;45749;51.140;17.184;2023-08-06T03:56:28;98580.53;;;15.90;100.00
59877;BME280;45749;51.140;17.184;2023-08-06T03:58:53;98609.25;;;16.16;100.00
59877;BME280;45749;51.140;17.184;2023-08-06T04:01:18;98606.16;;;16.13;100.00
59877;BME280;45749;51.140;17.184;2023-08-06T04:03:44;98584.09;;;15.98;100.00
59877;BME280;45749;51.140;17.184;2023-08-06T04:06:09;98610.91;;;16.17;100.00
59877;BME280;45749;51.140;17.184;2023-08-06T04:08:34;98620.28;;;16.13;100.00
59877;BME280;45749;51.140;17.184;2023-08-06T04:10:59;98606.00;;;16.00;100.00
59877;BME280;45749;51.140;17.184;2023-08-06T04:13:25;98634.84;;;16.17;100.00
59877;BME280;45749;51.140;17.184;2023-08-06T04:15:50;98614.88;;;16.07;100.00
59877;BME280;45749;51.140;17.184;2023-08-06T04:18:16;98634.03;;;16.17;100.00
59877;BME280;45749;51.140;17.184;2023-08-06T04:20:45;98602.59;;;16.06;100.00
59877;BME280;45749;51.140;17.184;2023-08-06T04:23:10;98620.91;;;16.15;100.00
59877;BME280;45749;51.140;17.184;2023-08-06T04:25:36;98621.09;;;16.14;100.00
59877;BME280;45749;51.140;17.184;2023-08-06T04:28:01;98623.38;;;16.17;100.00
59877;BME280;45749;51.140;17.184;2023-08-06T04:30:26;98612.22;;;16.07;100.00
59877;BME280;45749;51.140;17.184;2023-08-06T04:32:51;98614.50;;;16.10;100.00
59877;BME280;45749;51.140;17.184;2023-08-06T04:35:17;98616.16;;;16.11;100.00
59877;BME280;45749;51.140;17.184;2023-08-06T04:37:42;98581.16;;;15.92;100.00
59877;BME280;45749;51.140;17.184;2023-08-06T04:40:08;98581.16;;;15.92;100.00
59877;BME280;45749;51.140;17.184;2023-08-06T04:42:33;98602.66;;;16.12;100.00
59877;BME280;45749;51.140;17.184;2023-08-06T04:45:01;98594.03;;;16.10;100.00
59877;BME280;45749;51.140;17.184;2023-08-06T04:47:27;98559.25;;;15.90;100.00
59877;BME280;45749;51.140;17.184;2023-08-06T04:49:52;98547.34;;;15.86;100.00
59877;BME280;45749;51.140;17.184;2023-08-06T04:52:18;98550.00;;;15.86;100.00
59877;BME280;45749;51.140;17.184;2023-08-06T04:54:43;98574.69;;;16.02;100.00
59877;BME280;45749;51.140;17.184;2023-08-06T04:57:09;98574.63;;;15.95;100.00
59877;BME280;45749;51.140;17.184;2023-08-06T04:59:34;98543.69;;;15.73;100.00
59877;BME280;45749;51.140;17.184;2023-08-06T05:01:59;98563.47;;;15.85;100.00
59877;BME280;45749;51.140;17.184;2023-08-06T05:04:25;98565.31;;;15.84;100.00
59877;BME280;45749;51.140;17.184;2023-08-06T05:06:51;98567.97;;;15.84;100.00
59877;BME280;45749;51.140;17.184;2023-08-06T05:09:17;98535.09;;;15.70;100.00
59877;BME280;45749;51.140;17.184;2023-08-06T05:11:42;98590.78;;;15.93;100.00
59877;BME280;45749;51.140;17.184;2023-08-06T05:14:07;98546.56;;;15.71;100.00
59877;BME280;45749;51.140;17.184;2023-08-06T05:16:33;98566.34;;;15.83;100.00
59877;BME280;45749;51.140;17.184;2023-08-06T05:18:58;98563.94;;;15.88;100.00
59877;BME280;45749;51.140;17.184;2023-08-06T05:21:23;98557.13;;;15.86;100.00
59877;BME280;45749;51.140;17.184;2023-08-06T05:23:49;98568.63;;;15.86;100.00
59877;BME280;45749;51.140;17.184;2023-08-06T05:26:14;98542.78;;;15.65;100.00
59877;BME280;45749;51.140;17.184;2023-08-06T05:28:43;98558.47;;;15.75;100.00
59877;BME280;45749;51.140;17.184;2023-08-06T05:31:08;98556.81;;;15.74;100.00
59877;BME280;45749;51.140;17.184;2023-08-06T05:33:34;98537.31;;;15.67;100.00
59877;BME280;45749;51.140;17.184;2023-08-06T05:35:59;98543.25;;;15.69;100.00
59877;BME280;45749;51.140;17.184;2023-08-06T05:38:24;98511.28;;;15.47;100.00
59877;BME280;45749;51.140;17.184;2023-08-06T05:40:50;98544.91;;;15.70;100.00
59877;BME280;45749;51.140;17.184;2023-08-06T05:43:15;98549.28;;;15.78;100.00
59877;BME280;45749;51.140;17.184;2023-08-06T05:45:44;98552.25;;;15.68;100.00
59877;BME280;45749;51.140;17.184;2023-08-06T05:48:10;98549.22;;;15.71;100.00
59877;BME280;45749;51.140;17.184;2023-08-06T05:50:35;98545.44;;;15.65;100.00
59877;BME280;45749;51.140;17.184;2023-08-06T05:53:00;98538.66;;;15.63;100.00
59877;BME280;45749;51.140;17.184;2023-08-06T05:55:26;98540.94;;;15.66;100.00
59877;BME280;45749;51.140;17.184;2023-08-06T05:57:51;98536.50;;;15.66;100.00
59877;BME280;45749;51.140;17.184;2023-08-06T06:00:17;98515.97;;;15.45;100.00
59877;BME280;45749;51.140;17.184;2023-08-06T06:02:43;98557.78;;;15.66;100.00
59877;BME280;45749;51.140;17.184;2023-08-06T06:05:09;98521.34;;;15.52;100.00
59877;BME280;45749;51.140;17.184;2023-08-06T06:07:34;98496.47;;;15.38;100.00
59877;BME280;45749;51.140;17.184;2023-08-06T06:10:00;98462.78;;;15.24;100.00
59877;BME280;45749;51.140;17.184;2023-08-06T06:12:25;98536.19;;;15.61;100.00
59877;BME280;45749;51.140;17.184;2023-08-06T06:14:51;98543.50;;;15.59;100.00
59877;BME280;45749;51.140;17.184;2023-08-06T06:17:16;98535.00;;;15.49;100.00
59877;BME280;45749;51.140;17.184;2023-08-06T06:19:42;98569.03;;;15.68;100.00
59877;BME280;45749;51.140;17.184;2023-08-06T06:22:07;98596.06;;;15.72;100.00
59877;BME280;45749;51.140;17.184;2023-08-06T06:24:32;98593.50;;;15.64;100.00
59877;BME280;45749;51.140;17.184;2023-08-06T06:26:57;98561.25;;;15.67;100.00
59877;BME280;45749;51.140;17.184;2023-08-06T06:29:23;98528.78;;;15.57;100.00
59877;BME280;45749;51.140;17.184;2023-08-06T06:31:48;98539.97;;;15.52;100.00
59877;BME280;45749;51.140;17.184;2023-08-06T06:34:13;98531.78;;;15.68;100.00
59877;BME280;45749;51.140;17.184;2023-08-06T06:36:39;98512.91;;;15.63;100.00
59877;BME280;45749;51.140;17.184;2023-08-06T06:39:04;98503.50;;;15.46;100.00
59877;BME280;45749;51.140;17.184;2023-08-06T06:41:29;98537.81;;;15.62;100.00
59877;BME280;45749;51.140;17.184;2023-08-06T06:43:56;98545.53;;;15.72;100.00
59877;BME280;45749;51.140;17.184;2023-08-06T06:46:22;98535.63;;;15.66;100.00
59877;BME280;45749;51.140;17.184;2023-08-06T06:48:47;98517.88;;;15.52;100.00
59877;BME280;45749;51.140;17.184;2023-08-06T06:51:12;98547.75;;;15.68;100.00
59877;BME280;45749;51.140;17.184;2023-08-06T06:53:38;98542.16;;;15.63;100.00
59877;BME280;45749;51.140;17.184;2023-08-06T06:56:04;98550.84;;;15.72;100.00
59877;BME280;45749;51.140;17.184;2023-08-06T06:58:30;98543.53;;;15.74;100.00
59877;BME280;45749;51.140;17.184;2023-08-06T07:00:56;98524.63;;;15.69;100.00
59877;BME280;45749;51.140;17.184;2023-08-06T07:03:21;98535.63;;;15.81;100.00
59877;BME280;45749;51.140;17.184;2023-08-06T07:05:46;98536.06;;;15.84;100.00
59877;BME280;45749;51.140;17.184;2023-08-06T07:08:12;98516.19;;;15.80;100.00
59877;BME280;45749;51.140;17.184;2023-08-06T07:10:37;98528.09;;;15.84;100.00
59877;BME280;45749;51.140;17.184;2023-08-06T07:13:03;98534.81;;;15.80;100.00
59877;BME280;45749;51.140;17.184;2023-08-06T07:15:28;98525.16;;;15.79;100.00
59877;BME280;45749;51.140;17.184;2023-08-06T07:17:54;98532.16;;;15.80;100.00
59877;BME280;45749;51.140;17.184;2023-08-06T07:20:19;98509.34;;;15.71;100.00
59877;BME280;45749;51.140;17.184;2023-08-06T07:22:45;98483.22;;;15.60;100.00
59877;BME280;45749;51.140;17.184;2023-08-06T07:25:10;98511.47;;;15.82;100.00
59877;BME280;45749;51.140;17.184;2023-08-06T07:27:36;98482.56;;;15.58;100.00
59877;BME280;45749;51.140;17.184;2023-08-06T07:30:01;98518.84;;;15.80;100.00
59877;BME280;45749;51.140;17.184;2023-08-06T07:32:27;98535.41;;;15.82;100.00
59877;BME280;45749;51.140;17.184;2023-08-06T07:34:53;98513.00;;;15.70;100.00
59877;BME280;45749;51.140;17.184;2023-08-06T07:37:22;98519.03;;;15.79;100.00
59877;BME280;45749;51.140;17.184;2023-08-06T07:39:48;98490.06;;;15.69;100.00
59877;BME280;45749;51.140;17.184;2023-08-06T07:42:13;98501.69;;;15.83;100.00
59877;BME280;45749;51.140;17.184;2023-08-06T07:44:38;98494.72;;;15.82;100.00
59877;BME280;45749;51.140;17.184;2023-08-06T07:47:04;98482.38;;;15.74;100.00
59877;BME280;45749;51.140;17.184;2023-08-06T07:49:29;98509.09;;;15.87;100.00
59877;BME280;45749;51.140;17.184;2023-08-06T07:51:55;98509.09;;;15.87;100.00
59877;BME280;45749;51.140;17.184;2023-08-06T07:54:20;98471.00;;;15.65;100.00
59877;BME280;45749;51.140;17.184;2023-08-06T07:56:46;98513.47;;;15.95;100.00
59877;BME280;45749;51.140;17.184;2023-08-06T07:59:11;98503.03;;;15.93;100.00
59877;BME280;45749;51.140;17.184;2023-08-06T08:01:36;98490.53;;;15.94;100.00
59877;BME280;45749;51.140;17.184;2023-08-06T08:04:02;98460.34;;;15.80;100.00
59877;BME280;45749;51.140;17.184;2023-08-06T08:06:33;98480.28;;;15.91;100.00
59877;BME280;45749;51.140;17.184;2023-08-06T08:08:58;98462.25;;;15.86;100.00
59877;BME280;45749;51.140;17.184;2023-08-06T08:11:24;98464.13;;;15.92;100.00
59877;BME280;45749;51.140;17.184;2023-08-06T08:13:49;98457.53;;;15.88;100.00
59877;BME280;45749;51.140;17.184;2023-08-06T08:16:14;98447.91;;;15.87;100.00
59877;BME280;45749;51.140;17.184;2023-08-06T08:18:39;98439.94;;;15.87;100.00
59877;BME280;45749;51.140;17.184;2023-08-06T08:21:05;98422.16;;;15.88;100.00
59877;BME280;45749;51.140;17.184;2023-08-06T08:23:30;98400.00;;;15.81;100.00
59877;BME280;45749;51.140;17.184;2023-08-06T08:25:56;98380.25;;;15.68;100.00
59877;BME280;45749;51.140;17.184;2023-08-06T08:28:21;98409.59;;;15.82;100.00
59877;BME280;45749;51.140;17.184;2023-08-06T08:30:47;98423.56;;;15.84;100.00
59877;BME280;45749;51.140;17.184;2023-08-06T08:33:12;98424.94;;;15.80;100.00
59877;BME280;45749;51.140;17.184;2023-08-06T08:35:37;98425.00;;;15.86;100.00
59877;BME280;45749;51.140;17.184;2023-08-06T08:38:03;98438.91;;;15.88;100.00
59877;BME280;45749;51.140;17.184;2023-08-06T08:40:32;98433.44;;;15.90;100.00
59877;BME280;45749;51.140;17.184;2023-08-06T08:42:58;98426.81;;;15.86;100.00
59877;BME280;45749;51.140;17.184;2023-08-06T08:45:26;98426.81;;;15.86;100.00
59877;BME280;45749;51.140;17.184;2023-08-06T08:47:53;98422.03;;;15.96;100.00
59877;BME280;45749;51.140;17.184;2023-08-06T08:50:19;98377.59;;;15.68;100.00
59877;BME280;45749;51.140;17.184;2023-08-06T08:52:45;98414.09;;;16.03;100.00
59877;BME280;45749;51.140;17.184;2023-08-06T08:55:11;98358.84;;;15.77;100.00
59877;BME280;45749;51.140;17.184;2023-08-06T08:57:37;98381.44;;;15.87;100.00
59877;BME280;45749;51.140;17.184;2023-08-06T09:00:03;98385.56;;;15.90;100.00
59877;BME280;45749;51.140;17.184;2023-08-06T09:02:29;98349.16;;;15.69;100.00
59877;BME280;45749;51.140;17.184;2023-08-06T09:04:58;98368.72;;;15.83;100.00
59877;BME280;45749;51.140;17.184;2023-08-06T09:07:27;98385.78;;;15.95;100.00
59877;BME280;45749;51.140;17.184;2023-08-06T09:09:54;98397.28;;;16.02;100.00
59877;BME280;45749;51.140;17.184;2023-08-06T09:12:22;98403.03;;;15.99;100.00
59877;BME280;45749;51.140;17.184;2023-08-06T09:14:47;98406.28;;;16.01;100.00
59877;BME280;45749;51.140;17.184;2023-08-06T09:17:13;98391.63;;;15.84;100.00
59877;BME280;45749;51.140;17.184;2023-08-06T09:19:42;98390.81;;;15.83;100.00
59877;BME280;45749;51.140;17.184;2023-08-06T09:22:11;98393.03;;;15.80;100.00
59877;BME280;45749;51.140;17.184;2023-08-06T09:24:39;98408.41;;;15.84;100.00
59877;BME280;45749;51.140;17.184;2023-08-06T09:27:11;98418.78;;;16.01;100.00
59877;BME280;45749;51.140;17.184;2023-08-06T09:29:44;98425.28;;;15.98;100.00
59877;BME280;45749;51.140;17.184;2023-08-06T09:32:14;98390.38;;;15.80;100.00
59877;BME280;45749;51.140;17.184;2023-08-06T09:34:41;98409.16;;;16.00;100.00
59877;BME280;45749;51.140;17.184;2023-08-06T09:37:09;98417.53;;;15.97;100.00
59877;BME280;45749;51.140;17.184;2023-08-06T09:39:35;98418.97;;;15.99;100.00
59877;BME280;45749;51.140;17.184;2023-08-06T09:42:01;98418.78;;;16.01;100.00
59877;BME280;45749;51.140;17.184;2023-08-06T09:44:28;98417.13;;;16.00;100.00
59877;BME280;45749;51.140;17.184;2023-08-06T09:46:56;98425.13;;;16.00;100.00
59877;BME280;45749;51.140;17.184;2023-08-06T09:49:41;98424.03;;;15.94;100.00
59877;BME280;45749;51.140;17.184;2023-08-06T09:52:13;98433.91;;;16.00;100.00
59877;BME280;45749;51.140;17.184;2023-08-06T09:54:43;98435.94;;;15.98;100.00
59877;BME280;45749;51.140;17.184;2023-08-06T09:57:09;98441.13;;;16.06;100.00
59877;BME280;45749;51.140;17.184;2023-08-06T09:59:35;98438.84;;;16.03;100.00
59877;BME280;45749;51.140;17.184;2023-08-06T10:02:02;98428.34;;;15.95;100.00
59877;BME280;45749;51.140;17.184;2023-08-06T10:04:32;98431.06;;;16.02;100.00
59877;BME280;45749;51.140;17.184;2023-08-06T10:06:58;98393.16;;;15.71;100.00
59877;BME280;45749;51.140;17.184;2023-08-06T10:09:26;98431.88;;;16.02;100.00
59877;BME280;45749;51.140;17.184;2023-08-06T10:11:54;98381.91;;;15.69;100.00
59877;BME280;45749;51.140;17.184;2023-08-06T10:14:28;98423.72;;;16.04;100.00
59877;BME280;45749;51.140;17.184;2023-08-06T10:16:57;98412.44;;;16.02;100.00
59877;BME280;45749;51.140;17.184;2023-08-06T10:19:23;98363.41;;;15.83;100.00
59877;BME280;45749;51.140;17.184;2023-08-06T10:22:11;98382.78;;;16.05;100.00
59877;BME280;45749;51.140;17.184;2023-08-06T10:24:58;98355.19;;;16.06;100.00
59877;BME280;45749;51.140;17.184;2023-08-06T10:27:32;98359.06;;;16.03;100.00
59877;BME280;45749;51.140;17.184;2023-08-06T10:30:29;98360.25;;;16.01;100.00
59877;BME280;45749;51.140;17.184;2023-08-06T10:32:56;98371.91;;;16.00;100.00
59877;BME280;45749;51.140;17.184;2023-08-06T10:38:07;98331.44;;;15.76;100.00
59877;BME280;45749;51.140;17.184;2023-08-06T10:40:33;98356.78;;;16.00;100.00
59877;BME280;45749;51.140;17.184;2023-08-06T10:44:12;98343.03;;;15.97;100.00
59877;BME280;45749;51.140;17.184;2023-08-06T10:46:37;98327.22;;;15.88;100.00
59877;BME280;45749;51.140;17.184;2023-08-06T10:49:04;98344.50;;;15.99;100.00
59877;BME280;45749;51.140;17.184;2023-08-06T10:51:30;98338.38;;;16.05;100.00
59877;BME280;45749;51.140;17.184;2023-08-06T10:53:56;98311.09;;;15.90;100.00
59877;BME280;45749;51.140;17.184;2023-08-06T10:56:24;98327.13;;;16.03;100.00
59877;BME280;45749;51.140;17.184;2023-08-06T10:58:53;98320.59;;;16.06;100.00
59877;BME280;45749;51.140;17.184;2023-08-06T11:01:19;98330.81;;;16.09;100.00
59877;BME280;45749;51.140;17.184;2023-08-06T11:03:45;98311.56;;;16.00;100.00
59877;BME280;45749;51.140;17.184;2023-08-06T11:06:17;98331.84;;;16.08;100.00
59877;BME280;45749;51.140;17.184;2023-08-06T11:08:47;98328.16;;;16.09;100.00
59877;BME280;45749;51.140;17.184;2023-08-06T11:11:15;98325.28;;;16.04;100.00
59877;BME280;45749;51.140;17.184;2023-08-06T11:13:42;98277.91;;;15.86;100.00
59877;BME280;45749;51.140;17.184;2023-08-06T11:16:08;98324.72;;;16.15;100.00
59877;BME280;45749;51.140;17.184;2023-08-06T11:18:33;98326.78;;;16.13;100.00
59877;BME280;45749;51.140;17.184;2023-08-06T11:21:00;98326.56;;;16.14;100.00
59877;BME280;45749;51.140;17.184;2023-08-06T11:23:29;98331.47;;;16.11;100.00
59877;BME280;45749;51.140;17.184;2023-08-06T11:25:56;98297.19;;;15.94;100.00
59877;BME280;45749;51.140;17.184;2023-08-06T11:28:21;98327.22;;;16.16;100.00
59877;BME280;45749;51.140;17.184;2023-08-06T11:30:47;98302.94;;;15.98;100.00
59877;BME280;45749;51.140;17.184;2023-08-06T11:33:13;98326.78;;;16.13;100.00
59877;BME280;45749;51.140;17.184;2023-08-06T11:35:38;98316.31;;;16.11;100.00
59877;BME280;45749;51.140;17.184;2023-08-06T11:38:05;98319.63;;;16.13;100.00
59877;BME280;45749;51.140;17.184;2023-08-06T11:40:31;98313.88;;;16.10;100.00
59877;BME280;45749;51.140;17.184;2023-08-06T11:42:57;98273.00;;;15.83;100.00
59877;BME280;45749;51.140;17.184;2023-08-06T11:45:24;98296.16;;;15.95;100.00
59877;BME280;45749;51.140;17.184;2023-08-06T11:47:51;98316.28;;;16.05;100.00
59877;BME280;45749;51.140;17.184;2023-08-06T11:50:23;98280.38;;;15.87;100.00
59877;BME280;45749;51.140;17.184;2023-08-06T11:52:53;98333.34;;;16.17;100.00
59877;BME280;45749;51.140;17.184;2023-08-06T11:55:23;98328.41;;;16.14;100.00
59877;BME280;45749;51.140;17.184;2023-08-06T11:57:48;98301.75;;;16.01;100.00
59877;BME280;45749;51.140;17.184;2023-08-06T12:00:14;98337.47;;;16.20;100.00
59877;BME280;45749;51.140;17.184;2023-08-06T12:02:41;98315.25;;;15.99;100.00
59877;BME280;45749;51.140;17.184;2023-08-06T12:05:15;98315.25;;;15.99;100.00
59877;BME280;45749;51.140;17.184;2023-08-06T12:07:45;98293.25;;;15.84;100.00
59877;BME280;45749;51.140;17.184;2023-08-06T12:10:12;98323.00;;;16.01;100.00
59877;BME280;45749;51.140;17.184;2023-08-06T12:12:38;98312.50;;;15.92;100.00
59877;BME280;45749;51.140;17.184;2023-08-06T12:15:05;98354.81;;;16.15;100.00
59877;BME280;45749;51.140;17.184;2023-08-06T12:17:31;98357.28;;;16.17;100.00
59877;BME280;45749;51.140;17.184;2023-08-06T12:19:57;98341.84;;;15.99;100.00
59877;BME280;45749;51.140;17.184;2023-08-06T12:22:22;98324.56;;;15.88;100.00
59877;BME280;45749;51.140;17.184;2023-08-06T12:24:47;98368.13;;;16.15;100.00
59877;BME280;45749;51.140;17.184;2023-08-06T12:27:13;98360.50;;;16.06;100.00
59877;BME280;45749;51.140;17.184;2023-08-06T12:29:47;98373.41;;;16.09;100.00
59877;BME280;45749;51.140;17.184;2023-08-06T12:32:13;98385.06;;;16.08;100.00
59877;BME280;45749;51.140;17.184;2023-08-06T12:34:39;98388.97;;;16.12;100.00
59877;BME280;45749;51.140;17.184;2023-08-06T12:37:05;98388.97;;;16.12;100.00
59877;BME280;45749;51.140;17.184;2023-08-06T12:39:32;98377.47;;;16.05;100.00
59877;BME280;45749;51.140;17.184;2023-08-06T12:41:59;98393.91;;;16.15;100.00
59877;BME280;45749;51.140;17.184;2023-08-06T12:44:24;98394.72;;;16.15;100.00